Time;durP1;ratioP1;P1;durP2;ratioP2;P2;SDS_P1;SDS_P2;PMS_P1;PMS_P2;Temp;Humidity;BMP_temperature;BMP_pressure;BME280_temperature;BME280_humidity;BME280_pressure;Samples;Min_cycle;Max_cycle;Signal;HPM_P1;HPM_P2
2022/08/16 00:00:19;;;;;;;;;;;21.00;87.50;;;;;;5077884;28;19976;-95
2022/08/16 00:02:45;;;;;;;;;;;20.90;86.70;;;;;;5077855;28;19987;-95
2022/08/16 00:05:12;;;;;;;;;;;20.80;87.10;;;;;;5078063;28;19950;-96
2022/08/16 00:07:38;;;;;;;;;;;20.60;87.90;;;;;;5059470;28;19947;-96
2022/08/16 00:10:05;;;;;;;;;;;20.50;88.50;;;;;;5077745;28;19949;-95
2022/08/16 00:12:31;;;;;;;;;;;20.40;88.70;;;;;;5077417;28;20032;-95
2022/08/16 00:14:57;;;;;;;;;;;20.30;88.70;;;;;;5077532;28;19965;-96
2022/08/16 00:17:23;;;;;;;;;;;20.30;88.90;;;;;;5077223;28;19948;-95
2022/08/16 00:19:49;;;;;;;;;;;20.20;88.80;;;;;;5077756;28;19938;-95
2022/08/16 00:22:14;;;;;;;;;;;20.20;89.00;;;;;;5077470;28;19940;-95
2022/08/16 00:24:40;;;;;;;;;;;20.10;89.10;;;;;;5077389;28;19943;-94
2022/08/16 00:27:05;;;;;;;;;;;20.10;89.30;;;;;;5077362;28;20403;-95
2022/08/16 00:29:31;;;;;;;;;;;20.00;89.30;;;;;;5059102;28;19949;-94
2022/08/16 00:31:57;;;;;;;;;;;20.10;89.10;;;;;;5077544;28;20021;-95
2022/08/16 00:34:23;;;;;;;;;;;20.00;89.10;;;;;;5076714;28;19969;-95
2022/08/16 00:36:49;;;;;;;;;;;20.00;89.10;;;;;;5077124;28;20425;-94
2022/08/16 00:39:15;;;;;;;;;;;20.10;89.10;;;;;;5076847;28;19955;-95
2022/08/16 00:41:41;;;;;;;;;;;20.10;89.00;;;;;;5059175;28;19944;-95
2022/08/16 00:44:09;;;;;;;;;;;20.00;89.00;;;;;;5077020;28;19936;-94
2022/08/16 00:46:56;;;;;;;;;;;20.00;89.00;;;;;;5076712;28;19998;-95
2022/08/16 00:49:22;;;;;;;;;;;20.00;88.90;;;;;;5076532;28;19953;-95
2022/08/16 00:51:49;;;;;;;;;;;20.00;89.00;;;;;;5076903;28;19941;-96
2022/08/16 00:54:14;;;;;;;;;;;20.10;89.50;;;;;;5076468;28;20400;-95
2022/08/16 00:56:42;;;;;;;;;;;20.20;89.30;;;;;;5076703;28;19972;-96
2022/08/16 00:59:10;;;;;;;;;;;20.30;89.30;;;;;;5076462;28;19943;-95
2022/08/16 01:01:35;;;;;;;;;;;20.30;88.90;;;;;;5058500;28;20314;-96
2022/08/16 01:04:02;;;;;;;;;;;20.30;88.80;;;;;;5076715;28;19946;-96
2022/08/16 01:06:28;;;;;;;;;;;20.30;88.70;;;;;;5076175;28;20027;-95
2022/08/16 01:08:55;;;;;;;;;;;20.30;88.90;;;;;;5076653;28;20010;-95
2022/08/16 01:11:22;;;;;;;;;;;20.30;89.40;;;;;;5076241;28;19941;-96
2022/08/16 01:13:49;;;;;;;;;;;20.20;89.40;;;;;;5076718;28;19949;-95
2022/08/16 01:16:20;;;;;;;;;;;20.20;89.60;;;;;;5058255;28;19950;-95
2022/08/16 01:18:48;;;;;;;;;;;20.00;89.80;;;;;;5076503;28;20002;-95
2022/08/16 01:21:24;;;;;;;;;;;20.00;89.70;;;;;;5076146;28;19984;-94
2022/08/16 01:23:53;;;;;;;;;;;20.10;89.10;;;;;;5076349;28;19933;-96
2022/08/16 01:26:19;;;;;;;;;;;20.20;89.70;;;;;;5058045;28;20383;-95
2022/08/16 01:28:44;;;;;;;;;;;20.10;89.40;;;;;;5076559;28;19982;-96
2022/08/16 01:31:11;;;;;;;;;;;20.00;89.20;;;;;;5058003;28;20034;-96
2022/08/16 01:33:37;;;;;;;;;;;19.90;89.40;;;;;;5076032;28;20050;-95
2022/08/16 01:36:05;;;;;;;;;;;19.90;89.40;;;;;;5076011;28;20389;-96
2022/08/16 01:38:33;;;;;;;;;;;20.00;90.10;;;;;;5075799;28;19942;-96
2022/08/16 01:41:04;;;;;;;;;;;20.30;89.70;;;;;;5075989;28;19941;-96
2022/08/16 01:43:30;;;;;;;;;;;20.20;89.30;;;;;;5057743;28;19939;-96
2022/08/16 01:45:57;;;;;;;;;;;20.20;89.40;;;;;;5076523;28;19953;-95
2022/08/16 01:48:24;;;;;;;;;;;20.30;89.60;;;;;;5075589;28;19953;-95
2022/08/16 01:50:50;;;;;;;;;;;20.30;89.00;;;;;;5075797;28;19937;-95
2022/08/16 01:53:16;;;;;;;;;;;20.30;89.10;;;;;;5075687;28;19951;-96
2022/08/16 01:55:44;;;;;;;;;;;20.50;88.90;;;;;;5076571;28;20043;-95
2022/08/16 01:58:10;;;;;;;;;;;20.50;88.70;;;;;;5075616;28;19947;-96
2022/08/16 02:00:35;;;;;;;;;;;20.50;88.60;;;;;;5076347;28;20037;-95
2022/08/16 02:03:01;;;;;;;;;;;20.30;88.50;;;;;;5057962;28;20033;-96
2022/08/16 02:05:27;;;;;;;;;;;20.30;88.50;;;;;;5076056;28;19943;-96
2022/08/16 02:07:52;;;;;;;;;;;20.20;89.10;;;;;;5076224;28;20455;-95
2022/08/16 02:10:18;;;;;;;;;;;20.10;89.50;;;;;;5057705;28;19948;-95
2022/08/16 02:12:44;;;;;;;;;;;20.00;89.70;;;;;;5075911;28;19937;-96
2022/08/16 02:15:11;;;;;;;;;;;19.80;90.30;;;;;;5075686;28;20369;-96
2022/08/16 02:17:37;;;;;;;;;;;19.80;90.70;;;;;;5075798;28;19945;-94
2022/08/16 02:20:03;;;;;;;;;;;19.80;90.70;;;;;;5056826;28;20019;-95
2022/08/16 02:22:29;;;;;;;;;;;19.80;91.10;;;;;;5075808;28;19947;-96
2022/08/16 02:24:55;;;;;;;;;;;19.80;91.00;;;;;;5075149;28;19936;-96
2022/08/16 02:27:21;;;;;;;;;;;19.90;90.90;;;;;;5075086;28;20433;-96
2022/08/16 02:29:46;;;;;;;;;;;20.00;90.70;;;;;;5056818;28;20325;-96
2022/08/16 02:32:13;;;;;;;;;;;20.10;90.50;;;;;;5075306;28;19987;-95
2022/08/16 02:34:39;;;;;;;;;;;20.00;89.90;;;;;;5056302;28;19949;-95
2022/08/16 02:37:04;;;;;;;;;;;20.00;90.30;;;;;;5075093;28;19962;-96
2022/08/16 02:39:30;;;;;;;;;;;20.00;90.30;;;;;;5074862;28;19936;-96
2022/08/16 02:41:56;;;;;;;;;;;20.00;89.90;;;;;;5074801;28;19963;-95
2022/08/16 02:44:22;;;;;;;;;;;20.00;90.20;;;;;;5074439;28;19948;-96
2022/08/16 02:46:47;;;;;;;;;;;20.00;90.30;;;;;;5056510;28;19945;-96
2022/08/16 02:49:13;;;;;;;;;;;20.00;90.60;;;;;;5075016;28;19940;-96
2022/08/16 02:51:39;;;;;;;;;;;20.00;90.80;;;;;;5074302;28;19989;-95
2022/08/16 02:54:05;;;;;;;;;;;20.00;91.00;;;;;;5056711;28;19986;-96
2022/08/16 02:56:31;;;;;;;;;;;20.00;91.40;;;;;;5074553;28;19985;-96
2022/08/16 02:58:56;;;;;;;;;;;20.00;90.90;;;;;;5074178;28;19975;-96
2022/08/16 03:01:24;;;;;;;;;;;19.90;90.60;;;;;;5056370;28;20423;-95
2022/08/16 03:03:50;;;;;;;;;;;19.90;90.30;;;;;;5074530;28;19933;-95
2022/08/16 03:06:19;;;;;;;;;;;19.90;90.30;;;;;;5074198;28;19950;-96
2022/08/16 03:08:45;;;;;;;;;;;19.80;90.10;;;;;;5074483;28;19976;-95
2022/08/16 03:11:11;;;;;;;;;;;19.80;90.20;;;;;;5056139;28;19994;-95
2022/08/16 03:13:37;;;;;;;;;;;19.80;90.30;;;;;;5074456;28;19947;-96
2022/08/16 03:16:03;;;;;;;;;;;19.80;90.50;;;;;;5074106;28;19977;-95
2022/08/16 03:18:29;;;;;;;;;;;19.90;90.60;;;;;;5074430;28;20010;-95
2022/08/16 03:20:55;;;;;;;;;;;19.80;90.50;;;;;;5074107;28;19949;-96
2022/08/16 03:23:21;;;;;;;;;;;19.70;90.70;;;;;;5056731;28;19950;-96
2022/08/16 03:25:46;;;;;;;;;;;19.50;91.00;;;;;;5073978;28;19941;-95
2022/08/16 03:28:12;;;;;;;;;;;19.50;91.50;;;;;;5056042;28;20035;-96
2022/08/16 03:30:38;;;;;;;;;;;19.60;91.20;;;;;;5074084;28;19985;-95
2022/08/16 03:33:04;;;;;;;;;;;19.70;91.20;;;;;;5055981;28;20049;-96
2022/08/16 03:35:31;;;;;;;;;;;19.80;91.10;;;;;;5073757;28;19974;-96
2022/08/16 03:37:58;;;;;;;;;;;19.90;90.80;;;;;;5055795;28;19997;-95
2022/08/16 03:40:24;;;;;;;;;;;19.90;90.60;;;;;;5074112;28;20399;-96
2022/08/16 03:42:50;;;;;;;;;;;20.00;90.20;;;;;;5055831;28;19944;-96
2022/08/16 03:45:16;;;;;;;;;;;19.90;90.30;;;;;;5074128;28;19946;-96
2022/08/16 03:47:44;;;;;;;;;;;19.80;90.40;;;;;;5074016;28;20387;-95
2022/08/16 03:50:09;;;;;;;;;;;19.80;90.70;;;;;;5074014;28;19940;-95
2022/08/16 03:52:35;;;;;;;;;;;19.60;90.70;;;;;;5073793;28;20001;-96
2022/08/16 03:55:01;;;;;;;;;;;19.60;90.80;;;;;;5074186;28;20339;-95
2022/08/16 03:57:28;;;;;;;;;;;19.60;90.80;;;;;;5073536;28;20525;-96
2022/08/16 03:59:54;;;;;;;;;;;19.60;91.00;;;;;;5073890;28;19943;-95
2022/08/16 04:02:20;;;;;;;;;;;19.60;90.70;;;;;;5073566;28;19941;-95
2022/08/16 04:04:45;;;;;;;;;;;19.70;90.20;;;;;;5073822;28;19979;-95
2022/08/16 04:07:11;;;;;;;;;;;19.70;90.10;;;;;;5073791;28;19939;-94
2022/08/16 04:09:37;;;;;;;;;;;19.70;89.90;;;;;;5073754;28;19937;-94
2022/08/16 04:12:03;;;;;;;;;;;19.70;89.90;;;;;;5073463;28;19939;-95
2022/08/16 04:14:29;;;;;;;;;;;19.70;89.90;;;;;;5073678;28;19996;-95
2022/08/16 04:16:55;;;;;;;;;;;19.70;90.10;;;;;;5074342;28;19995;-95
2022/08/16 04:19:22;;;;;;;;;;;19.70;90.10;;;;;;5074052;28;19987;-95
2022/08/16 04:21:47;;;;;;;;;;;19.50;89.90;;;;;;5073520;28;20406;-96
2022/08/16 04:24:13;;;;;;;;;;;19.50;90.40;;;;;;5073841;28;19986;-95
2022/08/16 04:26:39;;;;;;;;;;;19.60;90.30;;;;;;5073451;28;19939;-96
2022/08/16 04:29:04;;;;;;;;;;;19.60;90.30;;;;;;5055576;28;20021;-96
2022/08/16 04:31:30;;;;;;;;;;;19.60;90.20;;;;;;5073713;28;19938;-96
2022/08/16 04:33:58;;;;;;;;;;;19.60;90.10;;;;;;5073648;28;20503;-95
2022/08/16 04:36:24;;;;;;;;;;;19.70;90.30;;;;;;5073742;28;19954;-95
2022/08/16 04:38:50;;;;;;;;;;;19.80;89.90;;;;;;5073545;28;19948;-96
2022/08/16 04:41:16;;;;;;;;;;;19.70;89.80;;;;;;5073749;28;19946;-95
2022/08/16 04:43:42;;;;;;;;;;;19.60;90.20;;;;;;5059643;28;20302;-96
2022/08/16 04:46:08;;;;;;;;;;;19.60;90.40;;;;;;5059293;28;19948;-95
2022/08/16 04:48:33;;;;;;;;;;;19.60;90.60;;;;;;5059140;28;19948;-95
2022/08/16 04:50:59;;;;;;;;;;;19.50;90.80;;;;;;5077756;28;19942;-95
2022/08/16 04:53:25;;;;;;;;;;;19.60;90.80;;;;;;5076969;28;20439;-95
2022/08/16 04:55:50;;;;;;;;;;;19.70;90.30;;;;;;5058903;28;20335;-96
2022/08/16 04:58:16;;;;;;;;;;;19.70;90.30;;;;;;5076823;28;20041;-96
2022/08/16 05:00:41;;;;;;;;;;;19.70;90.40;;;;;;5077583;28;19990;-96
2022/08/16 05:03:08;;;;;;;;;;;19.70;90.70;;;;;;5076898;28;19940;-96
2022/08/16 05:05:36;;;;;;;;;;;19.70;90.80;;;;;;5076843;28;19948;-95
2022/08/16 05:08:01;;;;;;;;;;;19.70;90.90;;;;;;5058541;28;20321;-94
2022/08/16 05:10:27;;;;;;;;;;;19.70;91.10;;;;;;5058462;28;19940;-95
2022/08/16 05:12:53;;;;;;;;;;;19.70;91.40;;;;;;5076643;28;20420;-96
2022/08/16 05:15:19;;;;;;;;;;;19.80;91.70;;;;;;5076219;28;19960;-95
2022/08/16 05:17:44;;;;;;;;;;;19.80;92.00;;;;;;5076512;28;19991;-95
2022/08/16 05:20:10;;;;;;;;;;;19.80;92.10;;;;;;5076476;28;19977;-95
2022/08/16 05:22:37;;;;;;;;;;;19.90;92.00;;;;;;5076369;28;19937;-95
2022/08/16 05:25:03;;;;;;;;;;;20.10;91.60;;;;;;5076107;28;19947;-95
2022/08/16 05:27:29;;;;;;;;;;;20.20;91.20;;;;;;5076584;28;19947;-95
2022/08/16 05:29:54;;;;;;;;;;;20.30;90.80;;;;;;5075768;28;19947;-95
2022/08/16 05:32:20;;;;;;;;;;;20.30;90.90;;;;;;5075868;28;19935;-96
2022/08/16 05:34:46;;;;;;;;;;;20.40;90.70;;;;;;5075596;28;19981;-96
2022/08/16 05:37:11;;;;;;;;;;;20.40;90.80;;;;;;5076337;28;19958;-95
2022/08/16 05:39:37;;;;;;;;;;;20.50;90.50;;;;;;5075629;28;20381;-95
2022/08/16 05:42:03;;;;;;;;;;;20.60;90.10;;;;;;5075992;28;20386;-95
2022/08/16 05:44:29;;;;;;;;;;;20.70;90.00;;;;;;5057722;28;19936;-95
2022/08/16 05:46:56;;;;;;;;;;;20.70;89.90;;;;;;5076190;28;19988;-95
2022/08/16 05:49:22;;;;;;;;;;;20.70;89.90;;;;;;5075599;28;19941;-95
2022/08/16 05:51:47;;;;;;;;;;;20.80;90.00;;;;;;5076093;28;20510;-95
2022/08/16 05:56:30;;;;;;;;;;;20.90;90.00;;;;;;5028189;28;20313;-96
2022/08/16 05:58:56;;;;;;;;;;;21.00;89.60;;;;;;5027779;28;20461;-96
2022/08/16 06:01:21;;;;;;;;;;;21.00;89.50;;;;;;5028078;28;20389;-96
2022/08/16 06:03:47;;;;;;;;;;;21.10;89.50;;;;;;5026551;28;20312;-96
2022/08/16 06:06:12;;;;;;;;;;;21.20;89.40;;;;;;5027901;28;19944;-96
2022/08/16 06:08:38;;;;;;;;;;;21.20;89.00;;;;;;5028293;28;19990;-96
2022/08/16 06:11:03;;;;;;;;;;;21.30;87.80;;;;;;5027590;28;19949;-96
2022/08/16 06:13:29;;;;;;;;;;;21.40;86.50;;;;;;5027995;28;19952;-95
2022/08/16 06:15:54;;;;;;;;;;;21.60;85.90;;;;;;5027374;28;19952;-96
2022/08/16 06:18:20;;;;;;;;;;;21.60;83.80;;;;;;5027862;28;20028;-96
2022/08/16 06:20:46;;;;;;;;;;;21.70;82.80;;;;;;5027892;28;19941;-96
2022/08/16 06:23:11;;;;;;;;;;;21.80;82.80;;;;;;5027804;28;19943;-96
2022/08/16 06:25:37;;;;;;;;;;;22.00;81.30;;;;;;5027898;28;19995;-96
2022/08/16 06:28:03;;;;;;;;;;;22.10;77.90;;;;;;5028152;28;19941;-96
2022/08/16 06:30:31;;;;;;;;;;;22.20;77.30;;;;;;5027531;28;19950;-96
2022/08/16 06:32:56;;;;;;;;;;;22.30;76.60;;;;;;5027606;28;19946;-96
2022/08/16 06:35:23;;;;;;;;;;;22.40;75.90;;;;;;5028275;28;20336;-96
2022/08/16 06:37:48;;;;;;;;;;;22.40;75.60;;;;;;5029542;28;19947;-96
2022/08/16 06:40:14;;;;;;;;;;;22.40;76.40;;;;;;5030114;28;20032;-96
2022/08/16 06:42:39;;;;;;;;;;;22.40;76.60;;;;;;5029735;28;20009;-96
2022/08/16 06:45:05;;;;;;;;;;;22.40;76.00;;;;;;5029788;28;19936;-96
2022/08/16 06:47:31;;;;;;;;;;;22.40;76.90;;;;;;5028136;28;20354;-96
2022/08/16 06:49:57;;;;;;;;;;;22.50;77.40;;;;;;5029066;28;19937;-96
2022/08/16 06:52:22;;;;;;;;;;;22.50;76.40;;;;;;5028993;28;19945;-95
2022/08/16 06:54:48;;;;;;;;;;;22.50;76.80;;;;;;5034949;28;20331;-96
2022/08/16 06:57:14;;;;;;;;;;;22.60;77.20;;;;;;5047054;28;19991;-96
2022/08/16 06:59:40;;;;;;;;;;;22.60;77.50;;;;;;5047704;28;19947;-96
2022/08/16 07:02:06;;;;;;;;;;;22.60;77.60;;;;;;5048589;28;19939;-96
2022/08/16 07:04:31;;;;;;;;;;;22.60;77.00;;;;;;5048634;28;19936;-96
2022/08/16 07:06:57;;;;;;;;;;;22.70;76.10;;;;;;5040254;28;20341;-96
2022/08/16 07:09:23;;;;;;;;;;;22.70;76.20;;;;;;5034350;28;19943;-96
2022/08/16 07:11:48;;;;;;;;;;;22.80;75.80;;;;;;5034819;28;20425;-96
2022/08/16 07:14:14;;;;;;;;;;;22.80;75.10;;;;;;5034930;28;19929;-96
2022/08/16 07:16:40;;;;;;;;;;;22.80;75.30;;;;;;5035219;28;19966;-96
2022/08/16 07:19:06;;;;;;;;;;;22.80;75.90;;;;;;5035354;28;19943;-96
2022/08/16 07:21:33;;;;;;;;;;;22.80;76.40;;;;;;5033413;28;20025;-96
2022/08/16 07:24:00;;;;;;;;;;;22.80;76.90;;;;;;5034425;28;19935;-96
2022/08/16 07:26:25;;;;;;;;;;;22.90;76.50;;;;;;5034232;28;19939;-96
2022/08/16 07:28:51;;;;;;;;;;;22.90;77.00;;;;;;5034140;28;20294;-96
2022/08/16 07:31:17;;;;;;;;;;;22.90;76.30;;;;;;5034132;28;20387;-96
2022/08/16 07:33:43;;;;;;;;;;;22.90;76.20;;;;;;5032203;28;20464;-96
2022/08/16 07:36:10;;;;;;;;;;;23.10;76.00;;;;;;5033483;28;19973;-96
2022/08/16 07:38:35;;;;;;;;;;;23.10;73.20;;;;;;5032092;28;19951;-96
2022/08/16 07:41:01;;;;;;;;;;;23.20;73.50;;;;;;5033960;28;19938;-95
2022/08/16 07:43:27;;;;;;;;;;;23.20;74.00;;;;;;5032883;28;19949;-96
2022/08/16 07:45:52;;;;;;;;;;;23.30;74.00;;;;;;5033134;28;19968;-96
2022/08/16 07:48:18;;;;;;;;;;;23.30;75.00;;;;;;5032786;28;19942;-96
2022/08/16 07:50:44;;;;;;;;;;;23.30;75.60;;;;;;5033336;28;20368;-96
2022/08/16 07:53:10;;;;;;;;;;;23.30;74.40;;;;;;5032691;28;19945;-96
2022/08/16 07:55:35;;;;;;;;;;;23.30;76.20;;;;;;5033594;28;20326;-96
2022/08/16 07:58:02;;;;;;;;;;;23.30;73.80;;;;;;5032893;28;19941;-96
2022/08/16 08:00:28;;;;;;;;;;;23.30;74.30;;;;;;5031510;28;19949;-96
2022/08/16 08:02:54;;;;;;;;;;;23.50;75.30;;;;;;5032932;28;19948;-96
2022/08/16 08:05:21;;;;;;;;;;;23.50;75.70;;;;;;5033121;28;19946;-96
2022/08/16 08:07:47;;;;;;;;;;;23.60;74.50;;;;;;5033085;28;19936;-96
2022/08/16 08:10:13;;;;;;;;;;;23.70;73.30;;;;;;5032749;28;19948;-96
2022/08/16 08:12:39;;;;;;;;;;;23.70;71.90;;;;;;5032060;28;19951;-96
2022/08/16 08:15:06;;;;;;;;;;;23.80;71.10;;;;;;5031083;28;19968;-96
2022/08/16 08:17:32;;;;;;;;;;;23.90;71.30;;;;;;5031754;28;19988;-95
2022/08/16 08:19:58;;;;;;;;;;;24.00;72.40;;;;;;5031699;28;20047;-96
2022/08/16 08:22:24;;;;;;;;;;;24.20;74.40;;;;;;5031581;28;19968;-96
2022/08/16 08:24:50;;;;;;;;;;;24.20;73.50;;;;;;5032510;28;20033;-96
2022/08/16 08:27:16;;;;;;;;;;;24.20;70.80;;;;;;5032172;28;19943;-96
2022/08/16 08:29:41;;;;;;;;;;;24.30;72.70;;;;;;5032723;28;19943;-96
2022/08/16 08:32:08;;;;;;;;;;;24.40;68.60;;;;;;5032162;28;20320;-96
2022/08/16 08:34:34;;;;;;;;;;;24.40;69.80;;;;;;5031085;28;20429;-96
2022/08/16 08:37:00;;;;;;;;;;;24.50;70.70;;;;;;5032641;28;19954;-96
2022/08/16 08:39:25;;;;;;;;;;;24.50;71.10;;;;;;5032478;28;20472;-96
2022/08/16 08:41:51;;;;;;;;;;;24.70;70.30;;;;;;5032580;28;19935;-96
2022/08/16 08:44:17;;;;;;;;;;;24.70;67.80;;;;;;5032099;28;19942;-96
2022/08/16 08:46:43;;;;;;;;;;;24.70;68.60;;;;;;5032594;28;19942;-96
2022/08/16 08:49:09;;;;;;;;;;;24.70;69.10;;;;;;5031913;28;20309;-96
2022/08/16 08:51:37;;;;;;;;;;;24.60;68.10;;;;;;5032235;28;19951;-96
2022/08/16 08:54:03;;;;;;;;;;;24.70;67.70;;;;;;5030630;28;19999;-96
2022/08/16 08:56:30;;;;;;;;;;;24.80;64.10;;;;;;5032562;28;19964;-96
2022/08/16 08:58:56;;;;;;;;;;;24.80;62.90;;;;;;5032502;28;19946;-96
2022/08/16 09:01:32;;;;;;;;;;;24.90;63.60;;;;;;5033198;28;19943;-96
2022/08/16 09:03:58;;;;;;;;;;;25.00;63.00;;;;;;5032707;28;19987;-96
2022/08/16 09:06:24;;;;;;;;;;;25.00;62.20;;;;;;5032759;28;19940;-96
2022/08/16 09:08:50;;;;;;;;;;;25.00;62.20;;;;;;5032760;28;20439;-96
2022/08/16 09:11:15;;;;;;;;;;;25.00;61.60;;;;;;5031563;28;19945;-96
2022/08/16 09:13:43;;;;;;;;;;;25.10;61.90;;;;;;5033173;28;20398;-96
2022/08/16 09:16:08;;;;;;;;;;;25.10;62.80;;;;;;5032673;28;19969;-96
2022/08/16 09:18:34;;;;;;;;;;;25.10;61.60;;;;;;5033946;28;19936;-96
2022/08/16 09:20:59;;;;;;;;;;;25.20;63.40;;;;;;5032457;28;19947;-96
2022/08/16 09:23:25;;;;;;;;;;;25.20;62.70;;;;;;5033108;28;19936;-96
2022/08/16 09:25:51;;;;;;;;;;;25.30;64.30;;;;;;5031087;28;19943;-96
2022/08/16 09:28:17;;;;;;;;;;;25.30;62.80;;;;;;5032677;28;19988;-96
2022/08/16 09:30:43;;;;;;;;;;;25.40;62.00;;;;;;5031984;28;19967;-96
2022/08/16 09:33:09;;;;;;;;;;;25.40;61.70;;;;;;5032015;28;20376;-96
2022/08/16 09:35:36;;;;;;;;;;;25.40;60.70;;;;;;5032089;28;20421;-96
2022/08/16 09:38:01;;;;;;;;;;;25.50;61.70;;;;;;5032366;28;19945;-96
2022/08/16 09:40:27;;;;;;;;;;;25.50;60.30;;;;;;5030352;28;20044;-96
2022/08/16 09:42:54;;;;;;;;;;;25.60;61.80;;;;;;5031348;28;20375;-96
2022/08/16 09:45:20;;;;;;;;;;;25.70;60.80;;;;;;5033261;28;19989;-96
2022/08/16 09:47:46;;;;;;;;;;;25.70;61.40;;;;;;5030999;28;20348;-96
2022/08/16 09:50:12;;;;;;;;;;;25.80;63.50;;;;;;5032971;28;19942;-96
2022/08/16 09:52:38;;;;;;;;;;;26.00;62.80;;;;;;5031930;28;19946;-96
2022/08/16 09:55:05;;;;;;;;;;;26.20;63.50;;;;;;5030878;28;19982;-96
2022/08/16 09:57:30;;;;;;;;;;;26.30;62.60;;;;;;5031872;28;20020;-96
2022/08/16 09:59:56;;;;;;;;;;;26.30;60.80;;;;;;5031371;28;20350;-96
2022/08/16 10:02:24;;;;;;;;;;;26.40;62.60;;;;;;5030849;28;20348;-96
2022/08/16 10:04:49;;;;;;;;;;;26.40;61.30;;;;;;5031311;28;19943;-96
2022/08/16 10:07:15;;;;;;;;;;;26.40;62.00;;;;;;5031789;28;19951;-96
2022/08/16 10:09:40;;;;;;;;;;;26.50;62.90;;;;;;5031204;28;19939;-96
2022/08/16 10:14:50;;;;;;;;;;;26.50;59.70;;;;;;5031635;28;20025;-96
2022/08/16 10:17:16;;;;;;;;;;;26.70;62.50;;;;;;5030770;28;19948;-96
2022/08/16 10:19:42;;;;;;;;;;;26.70;61.40;;;;;;5032391;28;19946;-96
2022/08/16 10:22:08;;;;;;;;;;;26.80;60.00;;;;;;5031495;28;20407;-96
2022/08/16 10:24:33;;;;;;;;;;;26.80;60.30;;;;;;5032016;28;20003;-96
2022/08/16 10:26:59;;;;;;;;;;;26.90;57.80;;;;;;5032663;28;19984;-96
2022/08/16 10:29:24;;;;;;;;;;;27.00;58.20;;;;;;5032266;28;20494;-96
2022/08/16 10:31:50;;;;;;;;;;;27.00;59.40;;;;;;5031703;28;20319;-96
2022/08/16 10:34:16;;;;;;;;;;;27.00;59.10;;;;;;5032587;28;20276;-96
2022/08/16 10:36:41;;;;;;;;;;;27.20;58.50;;;;;;5031374;28;19962;-96
2022/08/16 10:39:07;;;;;;;;;;;27.20;59.80;;;;;;5031534;28;20322;-96
2022/08/16 10:41:32;;;;;;;;;;;27.20;58.00;;;;;;5033022;28;20299;-96
2022/08/16 10:43:58;;;;;;;;;;;27.40;57.40;;;;;;5036812;28;19987;-96
2022/08/16 10:46:24;;;;;;;;;;;27.50;57.20;;;;;;5035197;28;19941;-96
2022/08/16 10:48:49;;;;;;;;;;;27.60;56.40;;;;;;5033108;28;20035;-96
2022/08/16 10:51:15;;;;;;;;;;;27.60;56.80;;;;;;5036359;28;19943;-96
2022/08/16 10:53:41;;;;;;;;;;;27.70;56.10;;;;;;5034648;28;20366;-96
2022/08/16 10:56:07;;;;;;;;;;;27.70;54.10;;;;;;5034195;28;20059;-96
2022/08/16 10:58:33;;;;;;;;;;;27.60;53.90;;;;;;5034311;28;20307;-96
2022/08/16 11:00:59;;;;;;;;;;;27.70;54.70;;;;;;5035120;28;19940;-96
2022/08/16 11:03:27;;;;;;;;;;;27.90;54.30;;;;;;5033366;28;19953;-96
2022/08/16 11:05:53;;;;;;;;;;;28.10;53.30;;;;;;5034601;28;20039;-96
2022/08/16 11:08:20;;;;;;;;;;;28.20;54.30;;;;;;5035623;28;20403;-96
2022/08/16 11:10:46;;;;;;;;;;;28.30;56.30;;;;;;5034521;28;20401;-96
2022/08/16 11:13:13;;;;;;;;;;;28.40;52.90;;;;;;5035465;28;19950;-96
2022/08/16 11:15:42;;;;;;;;;;;28.50;51.70;;;;;;5033575;28;19971;-96
2022/08/16 11:18:08;;;;;;;;;;;28.60;50.70;;;;;;5035149;28;19940;-96
2022/08/16 11:20:33;;;;;;;;;;;28.60;52.80;;;;;;5034968;28;19962;-96
2022/08/16 11:22:59;;;;;;;;;;;28.70;50.70;;;;;;5033144;28;19983;-96
2022/08/16 11:25:26;;;;;;;;;;;28.70;50.20;;;;;;5034608;28;19936;-96
2022/08/16 11:27:53;;;;;;;;;;;28.70;54.00;;;;;;5032601;28;19939;-96
2022/08/16 11:30:19;;;;;;;;;;;28.80;49.20;;;;;;5034470;28;19944;-96
2022/08/16 11:32:45;;;;;;;;;;;28.90;49.30;;;;;;5036065;28;20477;-96
2022/08/16 11:35:15;;;;;;;;;;;29.20;49.00;;;;;;5035451;28;20017;-96
2022/08/16 11:37:43;;;;;;;;;;;29.50;47.50;;;;;;5039408;28;20024;-96
2022/08/16 11:40:09;;;;;;;;;;;29.70;48.50;;;;;;5038358;28;19968;-96
2022/08/16 11:42:34;;;;;;;;;;;29.80;47.10;;;;;;5038614;28;19944;-96
2022/08/16 11:45:00;;;;;;;;;;;30.00;46.70;;;;;;5040369;28;19953;-96
2022/08/16 11:47:26;;;;;;;;;;;29.90;45.10;;;;;;5039977;28;20452;-96
2022/08/16 11:49:51;;;;;;;;;;;30.10;47.80;;;;;;5040485;28;19966;-96
2022/08/16 11:52:17;;;;;;;;;;;30.20;47.70;;;;;;5036372;28;19989;-96
2022/08/16 11:54:43;;;;;;;;;;;30.20;44.80;;;;;;5039446;28;20367;-96
2022/08/16 11:57:10;;;;;;;;;;;30.60;46.60;;;;;;5037349;28;19940;-96
2022/08/16 11:59:37;;;;;;;;;;;31.00;46.30;;;;;;5036201;28;19948;-96
2022/08/16 12:02:05;;;;;;;;;;;31.00;48.00;;;;;;5034143;28;19975;-96
2022/08/16 12:04:31;;;;;;;;;;;30.70;48.30;;;;;;5034177;28;19979;-96
2022/08/16 12:06:57;;;;;;;;;;;30.80;45.80;;;;;;5034489;28;20032;-96
2022/08/16 12:09:23;;;;;;;;;;;30.90;46.10;;;;;;5034841;28;19973;-96
2022/08/16 12:11:48;;;;;;;;;;;31.10;44.50;;;;;;5034473;28;19957;-96
2022/08/16 12:14:14;;;;;;;;;;;31.20;44.90;;;;;;5033412;28;19939;-96
2022/08/16 12:16:39;;;;;;;;;;;31.80;42.80;;;;;;5034088;28;20040;-96
2022/08/16 12:19:06;;;;;;;;;;;32.30;42.50;;;;;;5035021;28;19938;-96
2022/08/16 12:21:33;;;;;;;;;;;32.60;42.70;;;;;;5033449;28;19979;-96
2022/08/16 12:23:58;;;;;;;;;;;32.60;42.20;;;;;;5032848;28;19942;-96
2022/08/16 12:26:24;;;;;;;;;;;32.30;44.30;;;;;;5032836;28;20010;-96
2022/08/16 12:28:52;;;;;;;;;;;32.10;44.70;;;;;;5032889;28;19971;-96
2022/08/16 12:31:18;;;;;;;;;;;32.10;44.20;;;;;;5033136;28;19944;-96
2022/08/16 12:33:43;;;;;;;;;;;31.80;43.60;;;;;;5032774;28;19961;-96
2022/08/16 12:36:09;;;;;;;;;;;31.90;48.10;;;;;;5032694;28;20452;-96
2022/08/16 12:38:35;;;;;;;;;;;32.20;45.20;;;;;;5034162;28;20299;-96
2022/08/16 12:41:00;;;;;;;;;;;32.40;41.20;;;;;;5034344;28;19942;-96
2022/08/16 12:43:27;;;;;;;;;;;33.10;40.50;;;;;;5033603;28;20326;-96
2022/08/16 12:45:54;;;;;;;;;;;33.30;39.70;;;;;;5033162;28;19964;-96
2022/08/16 12:51:08;;;;;;;;;;;34.10;40.70;;;;;;5038265;28;19989;-96
2022/08/16 12:53:34;;;;;;;;;;;35.10;39.10;;;;;;5038183;28;20017;-96
2022/08/16 12:56:01;;;;;;;;;;;36.10;36.10;;;;;;5038206;28;19981;-96
2022/08/16 12:58:27;;;;;;;;;;;36.80;36.40;;;;;;5034949;28;19989;-96
2022/08/16 13:00:52;;;;;;;;;;;36.20;34.10;;;;;;5037045;28;19940;-96
2022/08/16 13:03:18;;;;;;;;;;;36.90;33.30;;;;;;5043624;28;20016;-96
2022/08/16 13:05:45;;;;;;;;;;;37.30;32.30;;;;;;5046435;28;20451;-96
2022/08/16 13:08:13;;;;;;;;;;;37.50;32.70;;;;;;5044834;28;19949;-96
2022/08/16 13:10:39;;;;;;;;;;;37.30;35.50;;;;;;5038144;28;20380;-96
2022/08/16 13:13:07;;;;;;;;;;;37.40;33.50;;;;;;5040039;28;19946;-96
2022/08/16 13:15:33;;;;;;;;;;;37.80;33.80;;;;;;5041213;28;19939;-96
2022/08/16 13:17:59;;;;;;;;;;;37.20;33.70;;;;;;5043687;28;19937;-96
2022/08/16 13:20:31;;;;;;;;;;;37.60;32.80;;;;;;5051108;28;19940;-96
2022/08/16 13:23:02;;;;;;;;;;;38.10;33.00;;;;;;5053613;28;19932;-96
2022/08/16 13:25:29;;;;;;;;;;;38.70;30.90;;;;;;5051726;28;20003;-96
2022/08/16 13:27:58;;;;;;;;;;;39.40;29.60;;;;;;5052758;28;19985;-97
2022/08/16 13:30:30;;;;;;;;;;;40.00;30.70;;;;;;5053188;28;19980;-96
2022/08/16 13:32:57;;;;;;;;;;;39.60;30.00;;;;;;5053623;28;19976;-96
2022/08/16 13:35:24;;;;;;;;;;;39.80;29.50;;;;;;5036653;28;19952;-96
2022/08/16 13:37:51;;;;;;;;;;;39.40;30.90;;;;;;5053400;28;19963;-96
2022/08/16 13:40:17;;;;;;;;;;;39.60;30.00;;;;;;5051623;28;20017;-97
2022/08/16 13:42:48;;;;;;;;;;;38.90;31.80;;;;;;5049826;28;19949;-96
2022/08/16 13:45:15;;;;;;;;;;;38.50;32.40;;;;;;5049626;28;19957;-96
2022/08/16 13:47:42;;;;;;;;;;;38.40;31.00;;;;;;5052713;28;19947;-96
2022/08/16 13:50:10;;;;;;;;;;;38.70;31.00;;;;;;5053918;28;19929;-96
2022/08/16 13:52:39;;;;;;;;;;;39.60;30.20;;;;;;5037155;27;19944;-96
2022/08/16 13:55:05;;;;;;;;;;;40.50;29.30;;;;;;5032949;23;19982;-96
2022/08/16 13:57:31;;;;;;;;;;;39.70;32.30;;;;;;4966764;28;19954;-96
2022/08/16 13:59:58;;;;;;;;;;;38.90;31.10;;;;;;4970617;28;19936;-96
2022/08/16 14:02:25;;;;;;;;;;;39.40;31.30;;;;;;4973250;29;19950;-96
2022/08/16 14:04:58;;;;;;;;;;;40.60;28.20;;;;;;4973837;28;20008;-96
2022/08/16 14:07:27;;;;;;;;;;;41.40;27.30;;;;;;4974587;28;19953;-96
2022/08/16 14:09:53;;;;;;;;;;;42.30;26.10;;;;;;4969998;28;19951;-96
2022/08/16 14:12:27;;;;;;;;;;;40.60;27.80;;;;;;4971576;28;20463;-97
2022/08/16 14:14:53;;;;;;;;;;;39.30;29.10;;;;;;4969454;29;19946;-96
2022/08/16 14:17:19;;;;;;;;;;;39.60;29.30;;;;;;4974166;28;19942;-96